Thursday, November 23, 2017, 7:15 AM GMT
Back to Local

CWPK, Parent, Que.

Location: , , Canada Lat: 47.917
Local Time: 7:15 AM GMT ( 7:15 GMT) Lon: -74.617
Time Zone: GMT Elev: 1450 ft

Show me the last for .
Show Coded

Time T Td Feel RH Dir Speed Gust Alt SLP Vis Weather Sky Remarks
2017-11-23 07:00 9 6 - 89 260° 2 - - 30.06 0 None
2017-11-23 06:00 10 7 - 87 260° 2 - - 30.07 0 None
2017-11-23 05:00 11 8 5 84 260° 3 - - 30.08 0 None
2017-11-23 04:00 14 9 5 81 280° 6 - - 30.09 0 None
2017-11-23 03:00 14 9 7 79 290° 5 - - 30.10 0 None
2017-11-23 02:00 14 9 7 79 280° 5 - - 30.10 0 None
2017-11-23 01:00 14 9 7 78 290° 5 - - 30.11 0 None
2017-11-23 00:00 14 9 8 78 280° 3 - - 30.11 0 None
2017-11-22 23:00 14 8 5 76 300° 6 - - 30.12 0 None
2017-11-22 22:00 15 10 6 81 300° 6 - - 30.11 0 1-hr Precip Total: 0.01"
2017-11-22 21:00 15 10 9 80 330° 3 - - 30.10 0 None
2017-11-22 20:00 15 10 6 79 310° 6 - - 30.08 0 None
2017-11-22 19:00 16 10 6 76 280° 7 - - 30.06 0 None
2017-11-22 18:00 19 11 9 71 280° 7 - - 30.04 0 None
2017-11-22 17:00 17 11 7 77 300° 7 - - 30.05 0 None
2017-11-22 16:00 19 12 8 74 290° 8 - - 30.06 0 None
2017-11-22 15:00 18 15 13 87 340° 3 - - 30.05 0 None
2017-11-22 14:00 18 14 8 86 320° 7 - - 30.03 0 None
2017-11-22 12:00 20 17 14 88 300° 5 - - 29.97 0 None
2017-11-22 11:00 22 19 17 89 320° 3 - - 29.95 0 1-hr Precip Total: 0.01"
2017-11-22 10:00 23 19 15 84 320° 7 - - 29.91 0 None
2017-11-22 09:00 28 23 19 82 310° 8 - - 29.88 0 None
2017-11-22 08:00 28 26 21 89 320° 7 - - 29.84 0 None

Support USWX by starting your Amazon purchase here.